createdAt,value
2022-10-17T00:00:20.870Z,3.63
2022-10-17T00:00:52.463Z,4.00
2022-10-17T00:01:23.875Z,4.38
2022-10-17T00:01:55.274Z,4.40
2022-10-17T00:02:26.777Z,3.78
2022-10-17T00:02:58.275Z,4.22
2022-10-17T00:03:29.653Z,3.95
2022-10-17T00:04:01.050Z,3.67
2022-10-17T00:05:08.833Z,3.53
2022-10-17T00:05:44.689Z,4.18
2022-10-17T00:06:16.318Z,3.70
2022-10-17T00:06:47.751Z,3.92
2022-10-17T00:07:19.167Z,3.53
2022-10-17T00:07:50.921Z,4.03
2022-10-17T00:08:22.303Z,3.20
2022-10-17T00:08:53.717Z,3.83
2022-10-17T00:09:25.141Z,3.42
2022-10-17T00:09:56.533Z,4.40
2022-10-17T00:10:27.911Z,4.07
2022-10-17T00:11:00.840Z,3.20
2022-10-17T00:11:32.328Z,3.53
2022-10-17T00:12:03.915Z,3.33
2022-10-17T00:12:35.306Z,3.08
2022-10-17T00:13:07.036Z,4.00
2022-10-17T00:13:38.440Z,3.38
2022-10-17T00:14:09.816Z,3.95
2022-10-17T00:14:41.205Z,3.42
2022-10-17T00:15:15.680Z,3.85
2022-10-17T00:15:47.151Z,3.05
2022-10-17T00:16:31.847Z,3.17
2022-10-17T00:17:03.437Z,3.28
2022-10-17T00:17:34.828Z,4.18
2022-10-17T00:18:06.207Z,3.75
2022-10-17T00:18:37.700Z,3.20
2022-10-17T00:19:09.031Z,3.38
2022-10-17T00:19:40.420Z,3.22
2022-10-17T00:20:12.068Z,3.05
2022-10-17T00:20:43.503Z,3.00
2022-10-17T00:21:15.490Z,2.75
2022-10-17T00:21:48.785Z,3.20
2022-10-17T00:22:20.121Z,3.25
2022-10-17T00:22:51.757Z,3.50
2022-10-17T00:23:23.110Z,3.35
2022-10-17T00:23:55.000Z,2.97
2022-10-17T00:24:26.415Z,3.08
2022-10-17T00:24:57.777Z,2.65
2022-10-17T00:25:29.247Z,2.80
2022-10-17T00:26:02.128Z,3.40
2022-10-17T00:26:33.521Z,2.85
2022-10-17T00:27:04.943Z,3.05
2022-10-17T00:27:37.308Z,3.00
2022-10-17T00:28:09.873Z,2.83
2022-10-17T00:28:41.320Z,2.78
2022-10-17T00:29:12.723Z,2.38
2022-10-17T00:29:47.822Z,2.50
2022-10-17T00:30:19.251Z,2.60
2022-10-17T00:31:01.600Z,2.78
2022-10-17T00:31:32.982Z,2.40
2022-10-17T00:32:04.418Z,3.00
2022-10-17T00:32:35.773Z,2.97
2022-10-17T00:33:07.179Z,2.40
2022-10-17T00:33:38.577Z,2.28
2022-10-17T00:34:09.962Z,2.25
2022-10-17T00:34:41.390Z,2.80
2022-10-17T00:35:12.729Z,2.58
2022-10-17T00:35:44.080Z,2.28
2022-10-17T00:36:15.414Z,2.20
2022-10-17T00:36:46.789Z,2.10
2022-10-17T00:37:18.185Z,2.28
2022-10-17T00:37:49.611Z,2.40
2022-10-17T00:38:20.958Z,2.17
2022-10-17T00:38:53.921Z,2.58
2022-10-17T00:39:25.355Z,2.53
2022-10-17T00:39:56.694Z,2.55
2022-10-17T00:40:28.083Z,2.35
2022-10-17T00:40:59.486Z,2.08
2022-10-17T00:41:31.921Z,2.33
2022-10-17T00:42:03.419Z,1.83
2022-10-17T00:42:34.805Z,2.58
2022-10-17T00:43:11.325Z,2.83
2022-10-17T00:43:56.926Z,2.35
2022-10-17T00:44:31.382Z,1.98
2022-10-17T00:45:06.718Z,1.98
2022-10-17T00:45:38.103Z,2.75
2022-10-17T00:46:09.445Z,2.15
2022-10-17T00:46:40.825Z,2.05
2022-10-17T00:47:13.876Z,2.83
2022-10-17T00:47:47.947Z,2.38
2022-10-17T00:48:22.571Z,2.10
2022-10-17T00:48:55.486Z,2.10
2022-10-17T00:49:28.503Z,1.77
2022-10-17T00:50:38.345Z,2.00
2022-10-17T00:51:09.788Z,2.45
2022-10-17T00:51:42.778Z,2.10
2022-10-17T00:52:21.819Z,1.92
2022-10-17T00:52:53.382Z,2.40
2022-10-17T00:53:24.762Z,1.75
2022-10-17T00:53:56.436Z,2.00
2022-10-17T00:54:30.992Z,1.42
2022-10-17T00:55:06.023Z,1.70
2022-10-17T00:55:42.499Z,1.95
2022-10-17T00:56:13.861Z,1.77
2022-10-17T00:56:46.789Z,1.45
2022-10-17T00:57:18.184Z,1.48
2022-10-17T00:57:49.759Z,1.83
2022-10-17T00:58:21.307Z,1.65
2022-10-17T00:58:52.783Z,1.70
2022-10-17T00:59:24.754Z,1.77
2022-10-17T00:59:56.583Z,1.83
2022-10-17T01:00:28.078Z,2.00
2022-10-17T01:00:59.763Z,1.70
2022-10-17T01:01:31.322Z,1.58
2022-10-17T01:02:10.531Z,1.60
2022-10-17T01:02:42.214Z,1.33
2022-10-17T01:03:13.714Z,1.90
2022-10-17T01:03:45.093Z,1.13
2022-10-17T01:04:16.488Z,1.67
2022-10-17T01:04:49.958Z,1.40
2022-10-17T01:05:21.456Z,1.42
2022-10-17T01:05:52.894Z,1.33
2022-10-17T01:06:24.297Z,1.55
2022-10-17T01:06:55.660Z,1.30
2022-10-17T01:07:28.740Z,1.42
2022-10-17T01:08:02.430Z,1.33
2022-10-17T01:08:33.972Z,1.85
2022-10-17T01:09:05.418Z,1.45
2022-10-17T01:09:36.999Z,1.08
2022-10-17T01:10:09.055Z,1.20
2022-10-17T01:11:00.711Z,1.33
2022-10-17T01:11:34.806Z,1.10
2022-10-17T01:12:12.036Z,1.48
2022-10-17T01:12:43.474Z,1.77
2022-10-17T01:13:23.154Z,1.55
2022-10-17T01:14:00.327Z,1.80
2022-10-17T01:14:51.931Z,1.45
2022-10-17T01:15:23.284Z,2.10
2022-10-17T01:15:59.365Z,1.50
2022-10-17T01:16:33.773Z,1.33
2022-10-17T01:17:12.075Z,1.38
2022-10-17T01:17:52.935Z,1.35
2022-10-17T01:18:53.547Z,1.40
2022-10-17T01:19:47.927Z,1.02
2022-10-17T01:20:37.992Z,1.27
2022-10-17T01:21:12.198Z,1.30
2022-10-17T01:21:52.239Z,0.95
2022-10-17T01:22:26.923Z,1.30
2022-10-17T01:23:01.571Z,1.50
2022-10-17T01:23:35.929Z,1.05
2022-10-17T01:24:26.049Z,1.48
2022-10-17T01:25:00.317Z,1.48
2022-10-17T01:25:34.506Z,1.30
2022-10-17T01:26:24.688Z,2.70
2022-10-17T01:27:14.481Z,1.40
2022-10-17T01:27:53.344Z,1.05
2022-10-17T01:29:43.391Z,1.50
2022-10-17T01:30:29.869Z,1.90
2022-10-17T01:31:06.947Z,1.50
2022-10-17T01:31:38.277Z,1.73
2022-10-17T01:32:30.249Z,1.45
2022-10-17T01:33:25.144Z,1.27
2022-10-17T01:34:10.456Z,1.52
2022-10-17T01:34:41.804Z,1.63
2022-10-17T01:35:23.778Z,2.30
2022-10-17T01:36:01.844Z,1.88
2022-10-17T01:36:39.504Z,2.33
2022-10-17T01:37:26.209Z,1.53
2022-10-17T01:38:03.626Z,2.25
2022-10-17T01:38:38.105Z,1.70
2022-10-17T01:39:20.688Z,1.52
2022-10-17T01:39:53.961Z,1.40
2022-10-17T01:40:27.988Z,1.48
2022-10-17T01:41:05.859Z,1.77
2022-10-17T01:41:59.200Z,1.95
2022-10-17T01:42:34.089Z,2.17
2022-10-17T01:43:08.830Z,1.85
2022-10-17T01:43:44.361Z,1.55
2022-10-17T01:44:21.848Z,1.52
2022-10-17T01:45:06.487Z,0.82
2022-10-17T01:45:49.137Z,1.75
2022-10-17T01:46:32.914Z,1.33
2022-10-17T01:47:13.624Z,1.48
2022-10-17T01:47:46.336Z,1.30
2022-10-17T01:48:20.678Z,1.70
2022-10-17T01:48:52.703Z,1.45
2022-10-17T01:49:26.798Z,1.45
2022-10-17T01:50:00.946Z,1.55
2022-10-17T01:50:34.081Z,1.70
2022-10-17T01:51:11.390Z,1.70
2022-10-17T01:51:44.933Z,1.65
2022-10-17T01:52:27.743Z,1.70
2022-10-17T01:53:07.829Z,0.90
2022-10-17T01:54:02.497Z,1.77
2022-10-17T01:54:39.839Z,1.50
2022-10-17T01:55:16.701Z,1.45
2022-10-17T01:55:49.941Z,1.17
2022-10-17T01:56:23.466Z,1.08
2022-10-17T01:56:58.235Z,1.83
2022-10-17T01:57:32.033Z,0.98
2022-10-17T01:58:06.677Z,1.70
2022-10-17T01:58:40.373Z,1.67
2022-10-17T01:59:17.270Z,1.50
2022-10-17T01:59:51.700Z,1.52
2022-10-17T02:00:24.787Z,2.00
2022-10-17T02:00:59.289Z,1.40
2022-10-17T02:01:31.049Z,1.05
2022-10-17T02:02:02.877Z,1.40
2022-10-17T02:02:34.881Z,1.48
2022-10-17T02:03:07.504Z,1.42
2022-10-17T02:03:40.674Z,1.77
2022-10-17T02:04:12.214Z,1.63
2022-10-17T02:04:43.852Z,1.27
2022-10-17T02:05:17.334Z,1.95
2022-10-17T02:05:48.807Z,1.25
2022-10-17T02:06:20.214Z,1.38
2022-10-17T02:06:51.596Z,1.70
2022-10-17T02:07:22.980Z,1.88
2022-10-17T02:07:54.378Z,2.15
2022-10-17T02:08:30.173Z,1.30
2022-10-17T02:09:01.962Z,1.57
2022-10-17T02:09:33.394Z,1.55
2022-10-17T02:10:09.057Z,0.90
2022-10-17T02:10:43.178Z,1.55
2022-10-17T02:11:18.801Z,1.67
2022-10-17T02:12:08.165Z,1.27
2022-10-17T02:12:47.852Z,1.63
2022-10-17T02:13:19.231Z,1.80
2022-10-17T02:13:50.576Z,1.95
2022-10-17T02:14:44.650Z,1.33
2022-10-17T02:15:34.468Z,1.42
2022-10-17T02:16:12.974Z,1.83
2022-10-17T02:16:53.827Z,2.10
2022-10-17T02:17:27.913Z,2.22
2022-10-17T02:18:02.145Z,1.33
2022-10-17T02:18:51.882Z,1.60
2022-10-17T02:19:34.073Z,1.60
2022-10-17T02:20:28.754Z,1.13
2022-10-17T02:21:07.068Z,1.83
2022-10-17T02:21:41.432Z,1.40
2022-10-17T02:22:15.883Z,1.83
2022-10-17T02:22:49.064Z,1.55
2022-10-17T02:23:24.937Z,1.67
2022-10-17T02:23:56.281Z,1.85
2022-10-17T02:24:39.856Z,1.08
2022-10-17T02:25:16.623Z,1.60
2022-10-17T02:25:56.961Z,1.27
2022-10-17T02:26:30.553Z,1.08
2022-10-17T02:27:10.955Z,1.35
2022-10-17T02:27:45.675Z,1.25
2022-10-17T02:28:17.045Z,1.40
2022-10-17T02:29:08.705Z,1.40
2022-10-17T02:29:46.104Z,1.52
2022-10-17T02:30:29.556Z,1.15
2022-10-17T02:31:03.008Z,1.05
2022-10-17T02:31:43.907Z,1.40
2022-10-17T02:32:26.656Z,1.58
2022-10-17T02:33:01.364Z,1.33
2022-10-17T02:33:35.520Z,1.45
2022-10-17T02:34:09.355Z,1.60
2022-10-17T02:34:46.131Z,2.28
2022-10-17T02:35:18.175Z,1.67
2022-10-17T02:35:51.213Z,1.42
2022-10-17T02:36:24.476Z,1.70
2022-10-17T02:36:58.169Z,1.48
2022-10-17T02:37:30.966Z,1.23
2022-10-17T02:38:03.511Z,1.20
2022-10-17T02:38:35.508Z,1.52
2022-10-17T02:39:08.271Z,1.38
2022-10-17T02:39:40.276Z,1.30
2022-10-17T02:40:12.594Z,1.58
2022-10-17T02:40:44.643Z,1.30
2022-10-17T02:41:17.523Z,1.70
2022-10-17T02:41:50.919Z,1.83
2022-10-17T02:42:24.421Z,1.92
2022-10-17T02:42:56.124Z,1.38
2022-10-17T02:43:28.052Z,1.30
2022-10-17T02:44:02.274Z,2.30
2022-10-17T02:44:34.222Z,1.70
2022-10-17T02:45:06.328Z,1.48
2022-10-17T02:45:38.008Z,1.60
2022-10-17T02:46:09.461Z,1.42
2022-10-17T02:46:41.561Z,1.23
2022-10-17T02:47:21.895Z,1.55
2022-10-17T02:47:59.071Z,1.02
2022-10-17T02:48:42.908Z,1.77
2022-10-17T02:49:14.278Z,1.65
2022-10-17T02:49:50.085Z,1.67
2022-10-17T02:50:23.760Z,1.80
2022-10-17T02:51:13.955Z,1.65
2022-10-17T02:51:47.934Z,1.30
2022-10-17T02:52:33.963Z,1.52
2022-10-17T02:53:08.975Z,2.20
2022-10-17T02:53:53.330Z,1.40
2022-10-17T02:54:31.734Z,1.70
2022-10-17T02:55:09.248Z,1.48
2022-10-17T02:55:43.711Z,1.48
2022-10-17T02:56:17.367Z,1.67
2022-10-17T02:56:51.556Z,1.80
2022-10-17T02:57:27.511Z,1.60
2022-10-17T02:58:19.735Z,1.95
2022-10-17T02:58:54.449Z,1.98
2022-10-17T02:59:27.304Z,1.45
2022-10-17T03:00:00.021Z,1.60
2022-10-17T03:00:31.792Z,1.17
2022-10-17T03:01:03.685Z,1.90
2022-10-17T03:01:35.640Z,2.30
2022-10-17T03:02:07.207Z,1.90
2022-10-17T03:02:39.929Z,1.55
2022-10-17T03:03:23.435Z,1.58
2022-10-17T03:04:04.805Z,2.17
2022-10-17T03:04:36.200Z,1.50
2022-10-17T03:05:08.200Z,1.27
2022-10-17T03:05:39.542Z,1.77
2022-10-17T03:06:10.971Z,2.20
2022-10-17T03:06:42.511Z,1.73
2022-10-17T03:07:13.955Z,1.77
2022-10-17T03:07:45.444Z,1.58
2022-10-17T03:08:16.794Z,1.30
2022-10-17T03:08:48.158Z,1.25
2022-10-17T03:09:19.511Z,1.58
2022-10-17T03:09:50.882Z,1.50
2022-10-17T03:10:22.890Z,1.73
2022-10-17T03:10:54.229Z,1.13
2022-10-17T03:11:25.580Z,1.35
2022-10-17T03:11:56.954Z,1.58
2022-10-17T03:12:28.570Z,1.60
2022-10-17T03:13:00.224Z,1.23
2022-10-17T03:13:33.017Z,1.85
2022-10-17T03:14:06.481Z,1.65
2022-10-17T03:14:37.864Z,1.52
2022-10-17T03:15:09.558Z,1.23
2022-10-17T03:15:41.044Z,1.98
2022-10-17T03:16:12.375Z,1.07
2022-10-17T03:16:43.770Z,1.63
2022-10-17T03:17:15.100Z,1.33
2022-10-17T03:18:22.830Z,1.42
2022-10-17T03:18:54.230Z,1.42
2022-10-17T03:19:25.664Z,1.50
2022-10-17T03:19:57.052Z,1.60
2022-10-17T03:20:28.381Z,1.45
2022-10-17T03:20:59.771Z,1.52
2022-10-17T03:21:31.157Z,2.08
2022-10-17T03:22:02.490Z,1.58
2022-10-17T03:22:33.981Z,1.42
2022-10-17T03:23:05.412Z,1.70
2022-10-17T03:23:36.799Z,1.70
2022-10-17T03:24:08.202Z,1.45
2022-10-17T03:24:39.579Z,1.40
2022-10-17T03:25:10.916Z,1.65
2022-10-17T03:25:42.309Z,1.13
2022-10-17T03:26:13.687Z,1.88
2022-10-17T03:27:21.265Z,3.47
2022-10-17T03:27:52.910Z,2.03
2022-10-17T03:28:24.290Z,1.73
2022-10-17T03:28:56.129Z,1.60
2022-10-17T03:29:27.540Z,2.10
2022-10-17T03:29:58.915Z,1.70
2022-10-17T03:30:30.264Z,2.25
2022-10-17T03:31:06.806Z,2.03
2022-10-17T03:31:38.191Z,2.05
2022-10-17T03:32:09.838Z,1.95
2022-10-17T03:32:41.209Z,1.33
2022-10-17T03:33:12.609Z,1.35
2022-10-17T03:33:43.993Z,1.92
2022-10-17T03:34:15.434Z,1.50
2022-10-17T03:34:46.773Z,1.57
2022-10-17T03:35:18.172Z,1.40
2022-10-17T03:36:25.843Z,2.05
2022-10-17T03:36:57.227Z,1.50
2022-10-17T03:37:28.882Z,1.65
2022-10-17T03:38:00.512Z,1.55
2022-10-17T03:38:31.843Z,1.65
2022-10-17T03:39:05.787Z,2.22
2022-10-17T03:39:37.383Z,1.23
2022-10-17T03:40:08.991Z,1.58
2022-10-17T03:40:40.363Z,1.80
2022-10-17T03:41:12.049Z,1.45
2022-10-17T03:41:43.437Z,1.92
2022-10-17T03:42:14.774Z,1.53
2022-10-17T03:42:46.132Z,1.58
2022-10-17T03:43:18.061Z,1.70
2022-10-17T03:43:49.441Z,1.90
2022-10-17T03:44:20.832Z,1.88
2022-10-17T03:44:52.269Z,1.40
2022-10-17T03:45:23.601Z,1.40
2022-10-17T03:45:54.990Z,1.90
2022-10-17T03:46:26.433Z,1.33
2022-10-17T03:46:57.815Z,1.52
2022-10-17T03:47:29.575Z,1.75
2022-10-17T03:48:01.092Z,1.40
2022-10-17T03:48:32.518Z,1.33
2022-10-17T03:49:03.868Z,1.40
2022-10-17T03:49:35.206Z,1.15
2022-10-17T03:50:06.792Z,1.63
2022-10-17T03:50:38.168Z,1.17
2022-10-17T03:51:10.128Z,1.20
2022-10-17T03:51:41.481Z,1.73
2022-10-17T03:52:13.372Z,1.25
2022-10-17T03:52:48.078Z,1.75
2022-10-17T03:53:19.463Z,1.15
2022-10-17T03:53:50.856Z,1.10
2022-10-17T03:54:22.339Z,1.60
2022-10-17T03:54:53.680Z,0.90
2022-10-17T03:55:25.058Z,1.10
2022-10-17T03:55:56.810Z,1.23
2022-10-17T03:56:28.291Z,1.42
2022-10-17T03:56:59.672Z,1.13
2022-10-17T03:57:31.529Z,1.25
2022-10-17T03:58:03.266Z,1.98
2022-10-17T03:58:34.604Z,1.58
2022-10-17T03:59:05.957Z,1.30
2022-10-17T03:59:37.277Z,1.80
2022-10-17T04:00:08.988Z,1.13
2022-10-17T04:00:40.328Z,1.90
2022-10-17T04:01:12.841Z,1.70
2022-10-17T04:01:44.285Z,1.88
2022-10-17T04:02:15.640Z,1.35
2022-10-17T04:02:46.963Z,1.90
2022-10-17T04:03:18.985Z,1.60
2022-10-17T04:03:54.367Z,1.83
2022-10-17T04:04:25.795Z,1.80
2022-10-17T04:04:57.130Z,1.40
2022-10-17T04:05:28.448Z,1.20
2022-10-17T04:06:00.116Z,1.70
2022-10-17T04:06:31.578Z,1.83
2022-10-17T04:07:03.035Z,1.85
2022-10-17T04:07:34.359Z,1.67
2022-10-17T04:08:05.707Z,1.50
2022-10-17T04:08:37.084Z,1.90
2022-10-17T04:09:08.441Z,1.83
2022-10-17T04:09:39.768Z,1.93
2022-10-17T04:10:11.119Z,2.03
2022-10-17T04:10:42.453Z,2.05
2022-10-17T04:11:15.601Z,1.55
2022-10-17T04:11:46.933Z,1.88
2022-10-17T04:12:18.273Z,1.85
2022-10-17T04:12:49.618Z,1.80
2022-10-17T04:13:20.947Z,1.20
2022-10-17T04:13:53.611Z,1.60
2022-10-17T04:14:24.994Z,1.48
2022-10-17T04:14:56.319Z,1.40
2022-10-17T04:15:27.658Z,1.40
2022-10-17T04:16:00.225Z,0.90
2022-10-17T04:16:31.573Z,1.67
2022-10-17T04:17:02.959Z,1.48
2022-10-17T04:17:37.324Z,1.77
2022-10-17T04:18:09.709Z,1.13
2022-10-17T04:18:41.360Z,1.70
2022-10-17T04:19:13.454Z,1.45
2022-10-17T04:19:44.772Z,1.33
2022-10-17T04:20:16.104Z,1.58
2022-10-17T04:20:47.464Z,1.83
2022-10-17T04:21:18.814Z,1.90
2022-10-17T04:21:50.241Z,2.50
2022-10-17T04:22:21.622Z,1.95
2022-10-17T04:22:52.967Z,1.88
2022-10-17T04:23:24.386Z,1.48
2022-10-17T04:23:56.657Z,2.72
2022-10-17T04:24:28.050Z,1.50
2022-10-17T04:24:59.419Z,1.70
2022-10-17T04:25:33.449Z,1.60
2022-10-17T04:26:07.424Z,1.83
2022-10-17T04:26:38.852Z,1.55
2022-10-17T04:27:10.246Z,1.50
2022-10-17T04:27:41.626Z,1.60
2022-10-17T04:28:13.071Z,1.58
2022-10-17T04:28:44.453Z,1.80
2022-10-17T04:29:15.781Z,1.80
2022-10-17T04:29:47.165Z,1.95
2022-10-17T04:30:18.548Z,1.50
2022-10-17T04:30:59.827Z,1.70
2022-10-17T04:31:31.164Z,1.50
2022-10-17T04:32:02.557Z,2.05
2022-10-17T04:32:36.450Z,1.80
2022-10-17T04:33:07.826Z,2.03
2022-10-17T04:33:39.517Z,1.73
2022-10-17T04:34:10.896Z,1.65
2022-10-17T04:34:42.311Z,2.38
2022-10-17T04:35:13.678Z,1.95
2022-10-17T04:35:54.535Z,1.70
2022-10-17T04:36:25.895Z,1.58
2022-10-17T04:36:57.256Z,1.63
2022-10-17T04:37:29.243Z,2.42
2022-10-17T04:38:00.628Z,2.00
2022-10-17T04:38:32.549Z,1.48
2022-10-17T04:39:03.994Z,2.05
2022-10-17T04:39:35.412Z,2.00
2022-10-17T04:40:07.160Z,1.73
2022-10-17T04:40:38.493Z,1.67
2022-10-17T04:41:14.242Z,2.30
2022-10-17T04:41:45.564Z,2.15
2022-10-17T04:42:16.894Z,1.80
2022-10-17T04:42:48.297Z,1.88
2022-10-17T04:43:19.983Z,1.95
2022-10-17T04:43:51.597Z,1.70
2022-10-17T04:44:23.316Z,1.85
2022-10-17T04:44:54.673Z,2.10
2022-10-17T04:45:26.038Z,1.50
2022-10-17T04:45:57.999Z,2.83
2022-10-17T04:46:29.481Z,2.13
2022-10-17T04:47:00.876Z,2.63
2022-10-17T04:47:32.247Z,1.60
2022-10-17T04:48:03.739Z,1.92
2022-10-17T04:48:35.185Z,1.98
2022-10-17T04:49:06.558Z,2.15
2022-10-17T04:49:38.022Z,1.95
2022-10-17T04:50:09.533Z,1.80
2022-10-17T04:50:40.923Z,1.55
2022-10-17T04:51:13.921Z,2.00
2022-10-17T04:51:45.295Z,1.67
2022-10-17T04:52:16.667Z,2.40
2022-10-17T04:52:48.048Z,1.80
2022-10-17T04:53:19.480Z,2.15
2022-10-17T04:53:51.008Z,1.20
2022-10-17T04:54:22.476Z,2.70
2022-10-17T04:54:53.914Z,2.17
2022-10-17T04:55:25.399Z,1.77
2022-10-17T04:55:56.886Z,2.05
2022-10-17T04:56:28.267Z,1.77
2022-10-17T04:56:59.661Z,2.13
2022-10-17T04:57:33.922Z,1.80
2022-10-17T04:58:07.801Z,2.00
2022-10-17T04:58:39.750Z,1.88
2022-10-17T04:59:11.191Z,2.03
2022-10-17T04:59:42.794Z,2.45
2022-10-17T05:00:14.279Z,1.77
2022-10-17T05:00:46.135Z,2.00
2022-10-17T05:01:18.580Z,1.90
2022-10-17T05:01:49.913Z,1.58
2022-10-17T05:02:21.308Z,1.50
2022-10-17T05:02:53.637Z,1.95
2022-10-17T05:03:25.045Z,1.58
2022-10-17T05:03:56.390Z,1.83
2022-10-17T05:04:30.693Z,1.77
2022-10-17T05:05:02.052Z,1.60
2022-10-17T05:05:33.401Z,2.05
2022-10-17T05:06:14.697Z,1.77
2022-10-17T05:06:46.045Z,2.67
2022-10-17T05:07:17.443Z,2.28
2022-10-17T05:07:48.828Z,1.45
2022-10-17T05:08:20.160Z,1.52
2022-10-17T05:08:51.548Z,1.95
2022-10-17T05:09:22.934Z,1.70
2022-10-17T05:09:54.328Z,1.75
2022-10-17T05:10:25.678Z,2.33
2022-10-17T05:10:57.074Z,2.13
2022-10-17T05:11:29.258Z,2.25
2022-10-17T05:12:00.592Z,1.50
2022-10-17T05:12:32.164Z,2.40
2022-10-17T05:13:03.789Z,1.98
2022-10-17T05:13:35.158Z,1.92
2022-10-17T05:14:06.485Z,2.90
2022-10-17T05:14:37.874Z,1.90
2022-10-17T05:15:09.575Z,3.03
2022-10-17T05:15:40.960Z,2.88
2022-10-17T05:16:12.285Z,2.20
2022-10-17T05:16:43.620Z,1.60
2022-10-17T05:17:15.063Z,2.15
2022-10-17T05:17:46.391Z,1.70
2022-10-17T05:18:17.778Z,1.83
2022-10-17T05:18:52.800Z,1.45
2022-10-17T05:19:24.660Z,2.42
2022-10-17T05:19:56.034Z,1.73
2022-10-17T05:20:27.883Z,2.40
2022-10-17T05:20:59.227Z,1.67
2022-10-17T05:22:07.619Z,2.65
2022-10-17T05:22:41.278Z,1.50
2022-10-17T05:23:13.726Z,2.08
2022-10-17T05:23:45.268Z,1.63
2022-10-17T05:24:16.607Z,1.90
2022-10-17T05:24:47.984Z,2.03
2022-10-17T05:25:19.619Z,2.22
2022-10-17T05:25:54.593Z,1.88
2022-10-17T05:26:26.100Z,2.00
2022-10-17T05:26:57.561Z,2.08
2022-10-17T05:27:28.923Z,2.65
2022-10-17T05:28:00.298Z,1.83
2022-10-17T05:28:31.659Z,2.03
2022-10-17T05:29:03.436Z,2.00
2022-10-17T05:29:34.914Z,1.70
2022-10-17T05:30:06.766Z,1.98
2022-10-17T05:30:38.147Z,1.92
2022-10-17T05:31:10.494Z,2.07
2022-10-17T05:31:41.945Z,2.03
2022-10-17T05:32:13.326Z,2.33
2022-10-17T05:32:44.765Z,2.00
2022-10-17T05:33:16.204Z,1.50
2022-10-17T05:33:47.898Z,2.00
2022-10-17T05:34:19.268Z,2.10
2022-10-17T05:34:50.616Z,2.70
2022-10-17T05:35:22.109Z,1.88
2022-10-17T05:35:53.447Z,1.83
2022-10-17T05:36:24.829Z,1.88
2022-10-17T05:36:57.284Z,2.67
2022-10-17T05:37:29.496Z,2.63
2022-10-17T05:38:00.834Z,2.97
2022-10-17T05:38:32.221Z,2.20
2022-10-17T05:39:03.650Z,2.03
2022-10-17T05:39:34.983Z,2.83
2022-10-17T05:40:06.638Z,2.50
2022-10-17T05:40:37.961Z,2.00
2022-10-17T05:41:09.556Z,2.30
2022-10-17T05:41:40.937Z,2.10
2022-10-17T05:42:12.330Z,2.38
2022-10-17T05:42:47.347Z,2.05
2022-10-17T05:43:18.743Z,2.00
2022-10-17T05:43:50.123Z,1.60
2022-10-17T05:44:21.506Z,1.52
2022-10-17T05:44:52.892Z,1.65
2022-10-17T05:45:24.276Z,2.25
2022-10-17T05:45:55.719Z,1.50
2022-10-17T05:46:27.051Z,2.33
2022-10-17T05:46:58.643Z,1.45
2022-10-17T05:47:30.291Z,2.05
2022-10-17T05:48:01.822Z,1.95
2022-10-17T05:48:33.322Z,1.95
2022-10-17T05:49:14.702Z,2.07
2022-10-17T05:49:56.002Z,2.13
2022-10-17T05:50:27.385Z,2.17
2022-10-17T05:50:59.454Z,1.98
2022-10-17T05:51:32.795Z,2.30
2022-10-17T05:52:04.256Z,2.10
2022-10-17T05:52:35.726Z,2.05
2022-10-17T05:53:07.085Z,2.40
2022-10-17T05:53:40.300Z,1.85
2022-10-17T05:54:11.799Z,2.58
2022-10-17T05:54:43.135Z,2.28
2022-10-17T05:55:14.573Z,2.35
2022-10-17T05:55:45.906Z,2.42
2022-10-17T05:56:17.293Z,2.22
2022-10-17T05:56:52.154Z,1.52
2022-10-17T05:57:26.736Z,1.88
2022-10-17T05:57:59.563Z,2.40
2022-10-17T05:58:48.752Z,2.40
2022-10-17T05:59:21.617Z,2.10
2022-10-17T05:59:52.959Z,1.90
2022-10-17T06:00:24.284Z,2.03
2022-10-17T06:00:59.625Z,2.38
2022-10-17T06:01:31.095Z,1.95
2022-10-17T06:02:02.543Z,2.38
2022-10-17T06:02:34.260Z,2.65
2022-10-17T06:03:05.776Z,1.90
2022-10-17T06:03:37.120Z,2.15
2022-10-17T06:04:08.491Z,2.25
2022-10-17T06:04:39.887Z,1.75
2022-10-17T06:05:11.367Z,2.47
2022-10-17T06:05:42.764Z,2.53
2022-10-17T06:06:14.811Z,2.72
2022-10-17T06:06:46.144Z,2.30
2022-10-17T06:07:17.589Z,1.65
2022-10-17T06:07:49.135Z,1.75
2022-10-17T06:08:20.607Z,1.85
2022-10-17T06:08:52.002Z,2.00
2022-10-17T06:09:23.586Z,1.98
2022-10-17T06:09:54.915Z,2.05
2022-10-17T06:10:26.307Z,2.35
2022-10-17T06:10:57.639Z,1.50
2022-10-17T06:11:28.979Z,1.80
2022-10-17T06:12:00.310Z,2.20
2022-10-17T06:12:31.902Z,1.83
2022-10-17T06:13:03.542Z,2.40
2022-10-17T06:13:34.932Z,1.83
2022-10-17T06:14:06.320Z,1.70
2022-10-17T06:14:37.743Z,2.13
2022-10-17T06:15:09.344Z,2.40
2022-10-17T06:15:40.745Z,2.00
2022-10-17T06:16:12.070Z,1.60
2022-10-17T06:16:43.457Z,2.15
2022-10-17T06:17:16.240Z,1.92
2022-10-17T06:17:47.862Z,1.90
2022-10-17T06:18:19.202Z,1.88
2022-10-17T06:18:50.511Z,2.00
2022-10-17T06:19:21.902Z,1.83
2022-10-17T06:19:53.241Z,1.80
2022-10-17T06:20:24.583Z,2.00
2022-10-17T06:21:01.939Z,2.50
2022-10-17T06:21:33.276Z,2.10
2022-10-17T06:22:04.662Z,1.88
2022-10-17T06:22:35.997Z,1.70
2022-10-17T06:23:07.379Z,2.50
2022-10-17T06:23:38.773Z,1.83
2022-10-17T06:24:10.102Z,1.75
2022-10-17T06:24:41.471Z,2.10
2022-10-17T06:25:12.829Z,2.25
2022-10-17T06:25:44.424Z,1.85
2022-10-17T06:26:15.814Z,1.95
2022-10-17T06:26:47.149Z,2.03
2022-10-17T06:27:18.531Z,1.75
2022-10-17T06:27:49.981Z,1.75
2022-10-17T06:28:21.358Z,2.13
2022-10-17T06:28:54.250Z,1.63
2022-10-17T06:29:25.671Z,1.63
2022-10-17T06:29:57.011Z,1.95
2022-10-17T06:30:28.372Z,1.90
2022-10-17T06:30:59.709Z,1.83
2022-10-17T06:31:31.042Z,1.80
2022-10-17T06:32:02.376Z,1.60
2022-10-17T06:32:33.736Z,1.75
2022-10-17T06:33:05.069Z,1.60
2022-10-17T06:33:36.651Z,1.90
2022-10-17T06:34:08.015Z,1.55
2022-10-17T06:34:39.381Z,1.48
2022-10-17T06:35:10.711Z,1.95
2022-10-17T06:35:42.087Z,2.10
2022-10-17T06:36:14.253Z,1.70
2022-10-17T06:36:45.825Z,1.80
2022-10-17T06:37:17.196Z,1.60
2022-10-17T06:37:48.600Z,2.22
2022-10-17T06:38:20.287Z,1.65
2022-10-17T06:38:51.649Z,1.95
2022-10-17T06:39:23.008Z,1.95
2022-10-17T06:39:54.357Z,3.00
2022-10-17T06:40:25.830Z,2.47
2022-10-17T06:41:17.386Z,1.67
2022-10-17T06:41:48.709Z,2.03
2022-10-17T06:42:20.059Z,1.60
2022-10-17T06:42:51.400Z,1.65
2022-10-17T06:43:27.776Z,1.92
2022-10-17T06:43:59.485Z,1.67
2022-10-17T06:44:31.011Z,2.40
2022-10-17T06:45:02.375Z,1.70
2022-10-17T06:45:33.735Z,1.90
2022-10-17T06:46:05.258Z,2.05
2022-10-17T06:46:39.482Z,1.55
2022-10-17T06:47:10.861Z,2.08
2022-10-17T06:47:42.201Z,1.95
2022-10-17T06:48:13.592Z,2.47
2022-10-17T06:48:45.422Z,1.35
2022-10-17T06:49:16.889Z,1.98
2022-10-17T06:49:48.206Z,2.25
2022-10-17T06:50:19.535Z,2.25
2022-10-17T06:50:50.898Z,2.17
2022-10-17T06:51:22.218Z,1.90
2022-10-17T06:51:53.884Z,1.80
2022-10-17T06:52:25.283Z,1.80
2022-10-17T06:52:56.619Z,2.58
2022-10-17T06:53:32.028Z,2.05
2022-10-17T06:54:03.691Z,1.92
2022-10-17T06:54:35.062Z,1.02
2022-10-17T06:55:06.571Z,2.30
2022-10-17T06:55:38.061Z,2.10
2022-10-17T06:56:10.047Z,2.35
2022-10-17T06:56:41.397Z,1.35
2022-10-17T06:57:12.807Z,1.92
2022-10-17T06:57:44.153Z,1.77
2022-10-17T06:58:15.505Z,1.80
2022-10-17T06:58:46.846Z,2.80
2022-10-17T06:59:18.171Z,2.45
2022-10-17T06:59:49.580Z,1.95
2022-10-17T07:00:20.973Z,2.50
2022-10-17T07:00:52.433Z,2.60
2022-10-17T07:01:23.848Z,1.80
2022-10-17T07:01:55.188Z,1.67
2022-10-17T07:02:26.771Z,2.20
2022-10-17T07:02:58.348Z,2.00
2022-10-17T07:03:29.839Z,1.65
2022-10-17T07:04:01.182Z,2.38
2022-10-17T07:04:32.592Z,1.60
2022-10-17T07:05:04.002Z,1.75
2022-10-17T07:05:35.329Z,2.40
2022-10-17T07:06:06.979Z,2.13
2022-10-17T07:06:38.793Z,2.17
2022-10-17T07:07:10.111Z,2.13
2022-10-17T07:07:44.171Z,1.70
2022-10-17T07:08:16.914Z,2.03
2022-10-17T07:08:48.247Z,2.35
2022-10-17T07:09:19.616Z,1.92
2022-10-17T07:09:51.346Z,2.30
2022-10-17T07:10:22.691Z,1.70
2022-10-17T07:10:54.393Z,2.03
2022-10-17T07:11:25.739Z,2.22
2022-10-17T07:11:57.336Z,1.83
2022-10-17T07:12:28.722Z,1.85
2022-10-17T07:13:00.033Z,2.17
2022-10-17T07:13:34.425Z,2.28
2022-10-17T07:14:08.135Z,2.00
2022-10-17T07:14:39.499Z,2.33
2022-10-17T07:15:11.101Z,5.55
2022-10-17T07:15:42.483Z,2.35
2022-10-17T07:16:14.400Z,2.38
2022-10-17T07:16:45.741Z,2.53
2022-10-17T07:17:17.558Z,1.70
2022-10-17T07:17:49.172Z,2.05
2022-10-17T07:18:20.515Z,2.33
2022-10-17T07:18:51.864Z,2.17
2022-10-17T07:19:23.177Z,2.10
2022-10-17T07:19:54.511Z,2.07
2022-10-17T07:20:25.877Z,1.38
2022-10-17T07:20:57.256Z,1.83
2022-10-17T07:21:28.687Z,2.63
2022-10-17T07:22:00.569Z,2.50
2022-10-17T07:22:31.924Z,2.28
2022-10-17T07:23:03.617Z,2.88
2022-10-17T07:23:35.575Z,1.73
2022-10-17T07:24:06.945Z,2.08
2022-10-17T07:24:38.308Z,1.60
2022-10-17T07:25:09.795Z,1.90
2022-10-17T07:25:41.100Z,2.22
2022-10-17T07:26:14.302Z,1.60
2022-10-17T07:26:45.662Z,2.08